首页
METAR-TAF:

METAR-TAF

机场 :

McEntire Joint National Guard Base

Eastover, 南卡罗来纳州, 美国

纬度: 33-55N, 经度: 080-48W, 海拔: 77米

当前天气观测

该预报发布于1小时和7分钟前的04:56 UTC
风速6节,风向西
温度 14°C
湿度 58%
气压 1016 hPa
能見度: 16.1公里
天空无云

METAR: KMMT 230456Z AUTO 26006KT 10SM CLR 14/06 A3000 RMK AO2 SLP160 T01360062 402870136 $

时间: 02:03 (06:03 UTC)

预报

该预报发布于7小时和3分钟前的23:00 UTC
预报有效从22日的 23点(UTC)到 24日的 05点(UTC)
风速6节,风向西
能见度10公里或以上
散云层高于25000英尺

TAF: KMMT 222300Z 2223/2405 26006KT 9999 SCT250 QNH2985INS TX26/2223Z TN11/2312Z

超过4000个机场的气象观测和天气预报(METAR&TAF报告)。

可查询的气象台以黄色和红色小点在地图上表示。

将鼠标移到小点上方,可查看气象台名称。

然后点击查看天气观测和预报。

如需切换地图:点击带黑十字的绿色按钮放大地图;点击带横线的绿色按钮缩小地图;或者点击绿色箭头查看邻近地区的地图。


METAR-TAF: